createdAt,value
2023-03-28T00:00:40.278Z,21.17
2023-03-28T00:03:07.283Z,23.43
2023-03-28T00:05:34.225Z,19.83
2023-03-28T00:08:01.149Z,20.17
2023-03-28T00:10:28.226Z,22.30
2023-03-28T00:12:55.021Z,18.90
2023-03-28T00:15:23.236Z,17.07
2023-03-28T00:17:52.656Z,26.57
2023-03-28T00:20:20.069Z,20.70
2023-03-28T00:22:46.922Z,18.33
2023-03-28T00:25:14.357Z,20.00
2023-03-28T00:27:41.922Z,19.03
2023-03-28T00:30:09.699Z,20.03
2023-03-28T00:32:37.343Z,17.37
2023-03-28T00:35:04.548Z,18.90
2023-03-28T00:37:32.035Z,27.53
2023-03-28T00:40:02.040Z,30.53
2023-03-28T00:42:28.909Z,24.00
2023-03-28T00:44:56.939Z,28.40
2023-03-28T00:47:30.945Z,24.93
2023-03-28T00:50:03.254Z,21.33
2023-03-28T00:52:32.235Z,22.20
2023-03-28T00:54:59.851Z,23.73
2023-03-28T00:57:28.275Z,22.27
2023-03-28T00:59:55.223Z,17.67
2023-03-28T01:02:22.906Z,18.47
2023-03-28T01:04:57.891Z,18.37
2023-03-28T01:07:26.878Z,19.67
2023-03-28T01:09:53.864Z,16.07
2023-03-28T01:12:21.392Z,17.53
2023-03-28T01:14:48.835Z,15.77
2023-03-28T01:17:16.275Z,18.23
2023-03-28T01:19:50.669Z,20.27
2023-03-28T01:22:32.846Z,16.23
2023-03-28T01:24:59.652Z,15.67
2023-03-28T01:27:37.733Z,15.93
2023-03-28T01:30:07.950Z,13.93
2023-03-28T01:33:13.745Z,17.80
2023-03-28T01:35:40.665Z,16.53
2023-03-28T01:38:27.860Z,18.07
2023-03-28T01:41:06.130Z,14.60
2023-03-28T01:43:40.839Z,16.00
2023-03-28T01:46:07.711Z,16.17
2023-03-28T01:48:38.940Z,18.47
2023-03-28T01:51:17.122Z,15.30
2023-03-28T01:53:46.596Z,16.87
2023-03-28T01:56:23.329Z,16.70
2023-03-28T01:58:51.619Z,14.57
2023-03-28T02:01:31.368Z,12.07
2023-03-28T02:04:01.470Z,13.37
2023-03-28T02:06:50.141Z,11.47
2023-03-28T02:09:24.724Z,12.50
2023-03-28T02:12:17.307Z,14.07
2023-03-28T02:15:04.406Z,11.87
2023-03-28T02:17:53.760Z,11.90
2023-03-28T02:20:50.962Z,7.17
2023-03-28T02:23:39.281Z,10.57
2023-03-28T02:26:33.733Z,10.00
2023-03-28T02:29:17.130Z,7.27
2023-03-28T02:32:10.197Z,6.27
2023-03-28T02:34:37.180Z,9.33
2023-03-28T02:37:12.459Z,10.47
2023-03-28T02:39:48.503Z,8.90
2023-03-28T02:42:34.035Z,6.27
2023-03-28T02:45:01.792Z,8.17
2023-03-28T02:47:36.674Z,8.50
2023-03-28T02:50:22.529Z,6.57
2023-03-28T02:52:56.142Z,8.03
2023-03-28T02:55:32.181Z,7.63
2023-03-28T02:58:15.364Z,8.67
2023-03-28T03:00:43.038Z,8.27
2023-03-28T03:03:10.767Z,7.03
2023-03-28T03:05:37.909Z,6.93
2023-03-28T03:08:04.834Z,7.00
2023-03-28T03:10:34.943Z,7.90
2023-03-28T03:13:02.086Z,8.40
2023-03-28T03:15:32.019Z,8.73
2023-03-28T03:18:04.608Z,5.83
2023-03-28T03:20:33.777Z,8.23
2023-03-28T03:23:02.427Z,7.23
2023-03-28T03:25:32.085Z,7.87
2023-03-28T03:28:08.271Z,7.97
2023-03-28T03:30:35.131Z,7.17
2023-03-28T03:33:28.447Z,8.53
2023-03-28T03:36:01.277Z,8.43
2023-03-28T03:38:28.581Z,9.60
2023-03-28T03:40:55.444Z,36.73
2023-03-28T03:43:23.304Z,5.00
2023-03-28T03:45:50.149Z,6.37
2023-03-28T03:48:17.107Z,6.73
2023-03-28T03:50:44.137Z,8.00
2023-03-28T03:53:15.707Z,11.37
2023-03-28T03:55:54.543Z,8.37
2023-03-28T03:58:21.479Z,24.17
2023-03-28T04:00:49.961Z,8.17
2023-03-28T04:03:34.145Z,9.53
2023-03-28T04:06:02.264Z,7.73
2023-03-28T04:08:29.417Z,7.87
2023-03-28T04:10:56.662Z,6.80
2023-03-28T04:13:23.632Z,10.47
2023-03-28T04:15:56.388Z,20.87
2023-03-28T04:18:30.027Z,10.60
2023-03-28T04:20:59.098Z,7.97
2023-03-28T04:23:44.373Z,9.20
2023-03-28T04:26:38.209Z,8.63
2023-03-28T04:29:07.493Z,10.57
2023-03-28T04:31:39.972Z,7.90
2023-03-28T04:34:30.439Z,11.73
2023-03-28T04:37:09.382Z,10.93
2023-03-28T04:39:49.829Z,8.07
2023-03-28T04:42:31.742Z,7.20
2023-03-28T04:45:09.298Z,9.73
2023-03-28T04:47:40.304Z,9.53
2023-03-28T04:50:14.206Z,11.60
2023-03-28T04:52:41.227Z,10.07
2023-03-28T04:55:08.193Z,10.57
2023-03-28T04:57:37.262Z,8.37
2023-03-28T05:00:10.121Z,11.23
2023-03-28T05:03:20.749Z,14.17
2023-03-28T05:05:58.403Z,11.97
2023-03-28T05:08:28.305Z,9.03
2023-03-28T05:10:56.094Z,8.63
2023-03-28T05:13:23.723Z,10.07
2023-03-28T05:16:01.951Z,10.70
2023-03-28T05:18:47.595Z,19.77
2023-03-28T05:21:17.103Z,18.47
2023-03-28T05:23:44.026Z,9.27
2023-03-28T05:26:21.807Z,9.57
2023-03-28T05:28:48.706Z,7.10
2023-03-28T05:31:17.427Z,10.10
2023-03-28T05:33:49.462Z,11.07
2023-03-28T05:36:26.743Z,6.53
2023-03-28T05:38:53.586Z,8.73
2023-03-28T05:41:21.154Z,7.67
2023-03-28T05:43:48.056Z,7.70
2023-03-28T05:46:26.053Z,5.10
2023-03-28T05:48:54.069Z,4.33
2023-03-28T05:51:21.636Z,4.17
2023-03-28T05:53:48.799Z,4.60
2023-03-28T05:56:15.579Z,4.67
2023-03-28T05:58:42.518Z,5.30
2023-03-28T06:01:10.262Z,5.87
2023-03-28T06:03:40.290Z,6.73
2023-03-28T06:06:08.401Z,5.10
2023-03-28T06:08:36.496Z,4.07
2023-03-28T06:11:03.933Z,4.90
2023-03-28T06:14:06.028Z,3.57
2023-03-28T06:16:32.988Z,5.70
2023-03-28T06:19:14.261Z,3.87
2023-03-28T06:21:48.628Z,4.43
2023-03-28T06:24:15.608Z,6.47
2023-03-28T06:26:42.831Z,6.30
2023-03-28T06:29:14.262Z,3.73
2023-03-28T06:31:42.647Z,7.03
2023-03-28T06:34:09.481Z,4.57
2023-03-28T06:36:46.447Z,2.07
2023-03-28T06:39:13.821Z,3.57
2023-03-28T06:41:40.964Z,3.80
2023-03-28T06:44:07.905Z,4.03
2023-03-28T06:46:53.182Z,4.40
2023-03-28T06:49:20.630Z,3.40
2023-03-28T06:52:19.786Z,3.20
2023-03-28T06:54:48.548Z,4.07
2023-03-28T06:57:16.668Z,3.90
2023-03-28T06:59:44.430Z,2.63
2023-03-28T07:02:17.812Z,2.30
2023-03-28T07:04:45.306Z,2.10
2023-03-28T07:07:12.688Z,3.87
2023-03-28T07:09:39.608Z,6.47
2023-03-28T07:12:10.602Z,2.97
2023-03-28T07:14:37.467Z,28.53
2023-03-28T07:17:04.281Z,4.27
2023-03-28T07:19:32.481Z,4.60
2023-03-28T07:21:59.390Z,3.13
2023-03-28T07:24:26.474Z,6.27
2023-03-28T07:27:14.885Z,3.20
2023-03-28T07:29:44.895Z,3.40
2023-03-28T07:32:11.933Z,2.33
2023-03-28T07:34:38.769Z,2.80
2023-03-28T07:37:08.505Z,3.50
2023-03-28T07:39:49.305Z,4.67
2023-03-28T07:42:20.706Z,4.30
2023-03-28T07:44:47.626Z,3.77
2023-03-28T07:47:16.847Z,3.60
2023-03-28T07:49:44.986Z,9.60
2023-03-28T07:52:13.548Z,17.20
2023-03-28T07:54:40.996Z,33.70
2023-03-28T07:57:08.095Z,3.13
2023-03-28T08:00:01.061Z,11.70
2023-03-28T08:02:29.406Z,16.20
2023-03-28T08:04:56.398Z,6.53
2023-03-28T08:07:25.855Z,6.73
2023-03-28T08:09:54.817Z,18.30
2023-03-28T08:12:29.703Z,17.30
2023-03-28T08:14:56.802Z,14.83
2023-03-28T08:17:24.143Z,24.03
2023-03-28T08:19:52.871Z,6.40
2023-03-28T08:22:38.363Z,8.83
2023-03-28T08:25:31.103Z,8.77
2023-03-28T08:27:58.654Z,7.27
2023-03-28T08:30:25.473Z,5.87
2023-03-28T08:32:58.010Z,6.93
2023-03-28T08:35:25.134Z,11.37
2023-03-28T08:37:56.054Z,8.63
2023-03-28T08:40:25.116Z,16.80
2023-03-28T08:42:55.044Z,14.77
2023-03-28T08:45:22.005Z,8.30
2023-03-28T08:48:04.425Z,16.30
2023-03-28T08:50:34.725Z,7.90
2023-03-28T08:53:02.578Z,8.43
2023-03-28T08:55:35.549Z,7.77
2023-03-28T08:58:03.524Z,5.00
2023-03-28T09:00:34.547Z,6.30
2023-03-28T09:03:01.565Z,8.33
2023-03-28T09:05:47.393Z,6.23
2023-03-28T09:08:20.639Z,3.23
2023-03-28T09:11:03.510Z,3.93
2023-03-28T09:13:43.532Z,5.63
2023-03-28T09:16:15.351Z,3.30
2023-03-28T09:18:57.680Z,4.30
2023-03-28T09:21:25.564Z,7.73
2023-03-28T09:24:13.213Z,14.43
2023-03-28T09:27:06.953Z,6.73
2023-03-28T09:29:38.920Z,4.83
2023-03-28T09:32:12.797Z,3.27
2023-03-28T09:34:49.141Z,3.67
2023-03-28T09:37:37.452Z,5.27
2023-03-28T09:40:21.012Z,3.47
2023-03-28T09:43:06.557Z,5.50
2023-03-28T09:45:49.107Z,3.80
2023-03-28T09:48:45.178Z,6.67
2023-03-28T09:51:16.996Z,5.80
2023-03-28T09:53:45.515Z,8.93
2023-03-28T09:56:30.210Z,8.87
2023-03-28T09:59:11.301Z,3.73
2023-03-28T10:01:46.157Z,5.63
2023-03-28T10:04:33.569Z,5.97
2023-03-28T10:07:31.250Z,4.63
2023-03-28T10:10:18.801Z,4.80
2023-03-28T10:12:49.165Z,9.00
2023-03-28T10:15:38.875Z,3.80
2023-03-28T10:18:18.869Z,3.60
2023-03-28T10:20:51.645Z,4.07
2023-03-28T10:23:21.734Z,3.90
2023-03-28T10:25:53.060Z,4.83
2023-03-28T10:28:38.449Z,3.97
2023-03-28T10:31:05.769Z,4.17
2023-03-28T10:33:43.514Z,3.40
2023-03-28T10:36:33.153Z,4.77
2023-03-28T10:39:20.249Z,3.37
2023-03-28T10:42:22.795Z,4.10
2023-03-28T10:45:20.253Z,4.20
2023-03-28T10:47:49.808Z,4.57
2023-03-28T10:50:22.697Z,2.93
2023-03-28T10:52:52.702Z,4.90
2023-03-28T10:55:28.881Z,8.30
2023-03-28T10:58:14.443Z,37.87
2023-03-28T11:00:58.859Z,31.03
2023-03-28T11:03:41.164Z,56.27
2023-03-28T11:06:11.224Z,2.83
2023-03-28T11:08:55.829Z,2.70
2023-03-28T11:11:36.782Z,3.60
2023-03-28T11:14:23.197Z,3.10
2023-03-28T11:16:56.366Z,4.57
2023-03-28T11:20:01.228Z,6.30
2023-03-28T11:22:41.370Z,4.17
2023-03-28T11:25:21.825Z,5.10
2023-03-28T11:28:24.096Z,5.33
2023-03-28T11:30:56.873Z,6.87
2023-03-28T11:33:39.066Z,4.63
2023-03-28T11:36:20.065Z,3.20
2023-03-28T11:38:52.372Z,19.00
2023-03-28T11:41:21.276Z,41.00
2023-03-28T11:44:39.331Z,14.60
2023-03-28T11:47:08.806Z,2.80
2023-03-28T11:49:41.186Z,9.13
2023-03-28T11:52:35.623Z,4.33
2023-03-28T11:55:25.238Z,4.67
2023-03-28T11:58:11.360Z,10.93
2023-03-28T12:00:42.386Z,5.37
2023-03-28T12:03:30.669Z,13.97
2023-03-28T12:06:02.762Z,10.40
2023-03-28T12:08:34.989Z,15.67
2023-03-28T12:11:07.869Z,13.33
2023-03-28T12:14:01.304Z,4.97
2023-03-28T12:16:44.505Z,6.13
2023-03-28T12:19:15.948Z,4.10
2023-03-28T12:21:52.769Z,2.80
2023-03-28T12:24:25.433Z,4.40
2023-03-28T12:27:17.680Z,4.83
2023-03-28T12:30:00.424Z,3.83
2023-03-28T12:32:38.606Z,5.83
2023-03-28T12:35:14.943Z,5.90
2023-03-28T12:37:59.596Z,4.33
2023-03-28T12:40:45.940Z,7.10
2023-03-28T12:43:14.750Z,4.80
2023-03-28T12:45:44.496Z,4.93
2023-03-28T12:48:30.636Z,4.90
2023-03-28T12:51:17.707Z,6.93
2023-03-28T12:54:00.136Z,7.27
2023-03-28T12:56:27.517Z,5.93
2023-03-28T12:58:54.323Z,4.20
2023-03-28T13:01:36.420Z,4.33
2023-03-28T13:04:36.143Z,3.03
2023-03-28T13:07:18.512Z,3.30
2023-03-28T13:09:56.189Z,4.70
2023-03-28T13:12:35.325Z,5.50
2023-03-28T13:15:03.959Z,3.67
2023-03-28T13:17:32.629Z,7.60
2023-03-28T13:20:11.602Z,5.83
2023-03-28T13:22:42.323Z,5.73
2023-03-28T13:25:28.521Z,8.40
2023-03-28T13:28:15.696Z,3.80
2023-03-28T13:30:43.645Z,3.37
2023-03-28T13:33:30.066Z,32.07
2023-03-28T13:36:00.429Z,19.80
2023-03-28T13:38:27.542Z,4.57
2023-03-28T13:40:57.279Z,4.03
2023-03-28T13:43:25.985Z,6.03
2023-03-28T13:45:57.847Z,6.77
2023-03-28T13:48:26.810Z,3.93
2023-03-28T13:50:53.785Z,8.33
2023-03-28T13:53:20.690Z,5.20
2023-03-28T13:55:47.891Z,4.10
2023-03-28T13:58:16.142Z,4.50
2023-03-28T14:00:44.161Z,2.67
2023-03-28T14:03:15.159Z,6.40
2023-03-28T14:05:43.628Z,7.97
2023-03-28T14:08:13.229Z,10.63
2023-03-28T14:10:42.309Z,4.57
2023-03-28T14:13:14.620Z,10.47
2023-03-28T14:15:43.735Z,24.47
2023-03-28T14:18:27.714Z,18.00
2023-03-28T14:20:55.993Z,8.07
2023-03-28T14:23:28.230Z,7.57
2023-03-28T14:25:55.582Z,3.10
2023-03-28T14:28:27.839Z,7.13
2023-03-28T14:30:54.911Z,5.00
2023-03-28T14:33:22.185Z,3.80
2023-03-28T14:35:57.519Z,4.63
2023-03-28T14:38:28.837Z,8.53
2023-03-28T14:41:04.477Z,6.33
2023-03-28T14:43:31.944Z,5.83
2023-03-28T14:46:03.094Z,3.83
2023-03-28T14:48:30.323Z,5.13
2023-03-28T14:50:59.317Z,5.47
2023-03-28T14:53:27.414Z,5.20
2023-03-28T14:55:55.294Z,11.23
2023-03-28T14:58:22.937Z,6.30
2023-03-28T15:00:58.945Z,5.07
2023-03-28T15:03:31.695Z,8.27
2023-03-28T15:05:59.595Z,7.33
2023-03-28T15:08:34.441Z,7.13
2023-03-28T15:11:06.140Z,8.73
2023-03-28T15:13:40.556Z,7.73
2023-03-28T15:16:08.656Z,5.43
2023-03-28T15:18:47.271Z,6.67
2023-03-28T15:21:15.755Z,9.23
2023-03-28T15:23:57.886Z,12.17
2023-03-28T15:26:28.080Z,7.83
2023-03-28T15:28:56.389Z,11.07
2023-03-28T15:31:24.116Z,7.90
2023-03-28T15:33:52.020Z,7.67
2023-03-28T15:36:20.403Z,7.50
2023-03-28T15:38:49.634Z,8.53
2023-03-28T15:41:22.937Z,9.03
2023-03-28T15:43:49.827Z,6.03
2023-03-28T15:46:16.704Z,6.27
2023-03-28T15:48:43.780Z,6.93
2023-03-28T15:51:15.637Z,5.60
2023-03-28T15:53:43.190Z,5.43
2023-03-28T15:56:26.484Z,7.07
2023-03-28T15:58:54.621Z,4.17
2023-03-28T16:01:23.035Z,4.57
2023-03-28T16:03:50.829Z,5.30
2023-03-28T16:06:31.596Z,5.60
2023-03-28T16:09:12.146Z,6.30
2023-03-28T16:11:39.064Z,5.63
2023-03-28T16:14:24.867Z,4.30
2023-03-28T16:16:55.253Z,5.33
2023-03-28T16:19:34.379Z,5.27
2023-03-28T16:22:02.203Z,10.03
2023-03-28T16:24:28.986Z,7.80
2023-03-28T16:26:56.369Z,7.67
2023-03-28T16:29:24.064Z,7.63
2023-03-28T16:31:51.424Z,8.80
2023-03-28T16:34:18.357Z,7.63
2023-03-28T16:36:45.848Z,6.37
2023-03-28T16:39:12.629Z,7.73
2023-03-28T16:41:39.700Z,5.57
2023-03-28T16:44:06.683Z,6.43
2023-03-28T16:46:33.874Z,5.60
2023-03-28T16:49:00.686Z,9.93
2023-03-28T16:51:27.584Z,5.20
2023-03-28T16:53:54.574Z,39.77
2023-03-28T16:56:23.963Z,10.83
2023-03-28T16:59:08.120Z,27.87
2023-03-28T17:01:35.100Z,11.47
2023-03-28T17:04:02.134Z,17.73
2023-03-28T17:06:29.817Z,4.77
2023-03-28T17:08:57.018Z,15.40
2023-03-28T17:11:24.417Z,6.53
2023-03-28T17:13:52.188Z,3.63
2023-03-28T17:16:19.383Z,5.30
2023-03-28T17:18:46.294Z,19.87
2023-03-28T17:21:13.950Z,4.63
2023-03-28T17:23:41.569Z,4.13
2023-03-28T17:26:09.150Z,9.70
2023-03-28T17:28:42.199Z,5.40
2023-03-28T17:31:10.774Z,7.07
2023-03-28T17:33:38.294Z,3.80
2023-03-28T17:36:18.296Z,5.53
2023-03-28T17:38:48.292Z,4.10
2023-03-28T17:41:59.503Z,16.40
2023-03-28T17:44:32.603Z,70.20
2023-03-28T17:47:03.008Z,61.07
2023-03-28T17:49:30.122Z,17.43
2023-03-28T17:51:57.419Z,34.10
2023-03-28T17:54:25.468Z,26.90
2023-03-28T17:56:53.251Z,28.33
2023-03-28T17:59:20.076Z,27.07
2023-03-28T18:01:47.132Z,19.77
2023-03-28T18:04:14.260Z,18.27
2023-03-28T18:06:59.621Z,32.50
2023-03-28T18:09:27.721Z,38.53
2023-03-28T18:11:54.615Z,44.03
2023-03-28T18:14:21.480Z,18.90
2023-03-28T18:16:49.000Z,19.93
2023-03-28T18:19:18.700Z,14.53
2023-03-28T18:21:46.034Z,15.63
2023-03-28T18:24:13.181Z,6.37
2023-03-28T18:26:40.080Z,8.63
2023-03-28T18:29:07.146Z,8.37
2023-03-28T18:31:34.158Z,5.10
2023-03-28T18:34:03.808Z,6.43
2023-03-28T18:36:31.169Z,12.47
2023-03-28T18:38:58.120Z,20.37
2023-03-28T18:41:25.472Z,27.27
2023-03-28T18:43:52.452Z,11.77
2023-03-28T18:46:19.385Z,16.90
2023-03-28T18:48:46.755Z,17.73
2023-03-28T18:51:14.060Z,21.73
2023-03-28T18:53:42.238Z,13.23
2023-03-28T18:56:10.162Z,20.07
2023-03-28T18:58:37.509Z,9.73
2023-03-28T19:01:04.935Z,18.50
2023-03-28T19:03:33.180Z,15.37
2023-03-28T19:06:01.359Z,17.63
2023-03-28T19:08:29.216Z,14.97
2023-03-28T19:10:57.275Z,14.03
2023-03-28T19:13:24.628Z,12.13
2023-03-28T19:16:02.828Z,11.77
2023-03-28T19:18:29.965Z,13.87
2023-03-28T19:20:58.374Z,16.73
2023-03-28T19:23:30.454Z,15.87
2023-03-28T19:25:57.475Z,21.67
2023-03-28T19:28:25.132Z,19.37
2023-03-28T19:31:05.329Z,46.77
2023-03-28T19:33:32.719Z,84.10
2023-03-28T19:35:59.873Z,82.80
2023-03-28T19:38:27.602Z,60.63
2023-03-28T19:40:58.311Z,42.37
2023-03-28T19:43:25.698Z,41.23
2023-03-28T19:45:52.643Z,27.03
2023-03-28T19:48:19.702Z,22.33
2023-03-28T19:50:48.760Z,28.27
2023-03-28T19:53:15.878Z,37.50
2023-03-28T19:55:42.721Z,31.30
2023-03-28T19:58:10.443Z,41.77
2023-03-28T20:00:37.305Z,28.10
2023-03-28T20:03:04.355Z,29.27
2023-03-28T20:05:31.585Z,34.27
2023-03-28T20:07:58.497Z,44.17
2023-03-28T20:10:25.794Z,33.43
2023-03-28T20:12:52.589Z,40.30
2023-03-28T20:15:19.561Z,37.17
2023-03-28T20:17:46.742Z,38.10
2023-03-28T20:20:13.690Z,26.17
2023-03-28T20:22:40.672Z,24.57
2023-03-28T20:25:07.888Z,13.37
2023-03-28T20:27:35.890Z,33.83
2023-03-28T20:30:03.615Z,57.23
2023-03-28T20:32:30.943Z,82.17
2023-03-28T20:34:57.810Z,41.23
2023-03-28T20:37:24.736Z,24.63
2023-03-28T20:39:52.211Z,29.73
2023-03-28T20:42:19.731Z,35.50
2023-03-28T20:44:46.648Z,49.07
2023-03-28T20:47:18.934Z,73.30
2023-03-28T20:49:46.540Z,68.53
2023-03-28T20:52:13.484Z,44.47
2023-03-28T20:54:40.468Z,21.27
2023-03-28T20:57:07.375Z,23.73
2023-03-28T20:59:34.858Z,23.40
2023-03-28T21:02:02.301Z,17.60
2023-03-28T21:04:30.509Z,23.67
2023-03-28T21:06:58.251Z,22.03
2023-03-28T21:09:25.988Z,26.53
2023-03-28T21:11:53.249Z,23.03
2023-03-28T21:14:20.096Z,20.97
2023-03-28T21:16:47.702Z,23.60
2023-03-28T21:19:14.706Z,19.67
2023-03-28T21:21:41.813Z,27.77
2023-03-28T21:24:08.857Z,26.67
2023-03-28T21:26:36.134Z,27.43
2023-03-28T21:29:03.405Z,27.00
2023-03-28T21:31:30.375Z,27.90
2023-03-28T21:33:58.091Z,25.67
2023-03-28T21:36:25.964Z,26.53
2023-03-28T21:38:53.630Z,30.73
2023-03-28T21:41:20.984Z,26.80
2023-03-28T21:43:48.444Z,29.50
2023-03-28T21:46:18.856Z,29.07
2023-03-28T21:48:48.542Z,24.90
2023-03-28T21:51:16.403Z,25.73
2023-03-28T21:53:43.327Z,24.13
2023-03-28T21:56:11.854Z,24.17
2023-03-28T21:58:39.247Z,23.87
2023-03-28T22:01:06.476Z,25.10
2023-03-28T22:03:36.289Z,24.07
2023-03-28T22:06:03.568Z,24.83
2023-03-28T22:08:30.833Z,29.83
2023-03-28T22:10:58.828Z,26.03
2023-03-28T22:13:26.004Z,26.90
2023-03-28T22:15:53.260Z,22.73
2023-03-28T22:18:20.754Z,21.23
2023-03-28T22:20:53.584Z,20.47
2023-03-28T22:23:22.244Z,17.53
2023-03-28T22:25:49.898Z,16.50
2023-03-28T22:28:17.092Z,18.67
2023-03-28T22:30:44.480Z,17.67
2023-03-28T22:33:13.554Z,17.60
2023-03-28T22:35:40.693Z,15.37
2023-03-28T22:38:08.010Z,19.63
2023-03-28T22:40:35.268Z,18.57
2023-03-28T22:43:03.277Z,26.63
2023-03-28T22:45:30.627Z,20.53
2023-03-28T22:48:03.903Z,18.27
2023-03-28T22:50:33.926Z,24.10
2023-03-28T22:53:02.710Z,23.07
2023-03-28T22:55:30.296Z,22.27
2023-03-28T22:57:57.398Z,25.87
2023-03-28T23:00:24.376Z,24.00
2023-03-28T23:02:52.231Z,25.80
2023-03-28T23:05:19.598Z,24.97
2023-03-28T23:07:46.704Z,24.10
2023-03-28T23:10:15.388Z,21.93
2023-03-28T23:12:42.850Z,24.13
2023-03-28T23:15:10.624Z,24.37
2023-03-28T23:17:38.268Z,18.83
2023-03-28T23:20:25.921Z,16.40
2023-03-28T23:22:53.898Z,18.27
2023-03-28T23:25:22.378Z,19.43
2023-03-28T23:27:49.357Z,18.67
2023-03-28T23:30:16.586Z,20.10
2023-03-28T23:32:43.691Z,20.17
2023-03-28T23:35:10.919Z,20.10
2023-03-28T23:37:38.619Z,21.83
2023-03-28T23:40:06.503Z,25.87
2023-03-28T23:42:33.338Z,25.67
2023-03-28T23:45:00.289Z,19.27
2023-03-28T23:47:27.232Z,21.50
2023-03-28T23:49:54.209Z,31.30
2023-03-28T23:52:20.978Z,26.60
2023-03-28T23:54:47.977Z,25.60
2023-03-28T23:57:14.882Z,23.73
2023-03-28T23:59:41.817Z,19.87
